PN08 weather

Public forecast

Using degrees Fahrenheit for public forecast. Weather courtesy of forecast.io.

Closest aviation weather report (METAR) to Davis Airport

Closest report is Indiana County/Jimmy Stewart Fld/ Airport, 6.6 nm (12.3 km) SSE. Retrieved 2020/08/15 16:35 UTC (0 seconds ago):

KIDI 151635Z AUTO 19007KT 160V220 10SM FEW095 23/16 A3008 RMK A01

Closest aviation forecast (TAF) to Davis Airport

Closest forecast is DuBois Regional Airport, 29.2 nm (54.0 km) NNE. Retrieved 2020/08/15 12:36 UTC (4 hours ago):

TAF KDUJ 151135Z 1512/1612 10005KT P6SM BKN200 FM151500 12005KT P6SM BKN100 FM152000 13005KT P6SM BKN035 FM160200 11005KT P6SM BKN060